createdAt,value
2018-02-01T00:00:15.767Z,1.87
2018-02-01T00:02:43.831Z,1.40
2018-02-01T00:05:12.162Z,1.10
2018-02-01T00:07:40.450Z,1.30
2018-02-01T00:10:08.730Z,4.30
2018-02-01T00:12:37.011Z,1.43
2018-02-01T00:15:05.361Z,1.40
2018-02-01T00:17:34.391Z,1.20
2018-02-01T00:20:02.681Z,1.30
2018-02-01T00:22:30.959Z,1.30
2018-02-01T00:24:59.361Z,1.20
2018-02-01T00:27:27.694Z,1.20
2018-02-01T00:29:55.981Z,1.47
2018-02-01T00:32:24.272Z,1.30
2018-02-01T00:34:52.557Z,1.20
2018-02-01T00:37:20.857Z,1.20
2018-02-01T00:39:49.136Z,1.20
2018-02-01T00:42:17.424Z,5.13
2018-02-01T00:44:45.697Z,1.27
2018-02-01T00:47:14.010Z,1.10
2018-02-01T00:49:42.286Z,1.20
2018-02-01T00:52:10.563Z,1.20
2018-02-01T00:54:38.919Z,1.50
2018-02-01T00:57:07.188Z,1.20
2018-02-01T00:59:35.520Z,1.20
2018-02-01T01:02:03.809Z,0.90
2018-02-01T01:04:32.901Z,1.03
2018-02-01T01:07:01.294Z,1.00
2018-02-01T01:09:30.227Z,1.30
2018-02-01T01:11:59.360Z,0.90
2018-02-01T01:14:27.646Z,4.67
2018-02-01T01:16:55.965Z,0.83
2018-02-01T01:19:24.228Z,0.93
2018-02-01T01:21:52.538Z,0.90
2018-02-01T01:24:21.590Z,0.90
2018-02-01T01:26:49.897Z,1.00
2018-02-01T01:29:18.222Z,0.90
2018-02-01T01:31:47.233Z,1.00
2018-02-01T01:34:15.571Z,0.90
2018-02-01T01:36:44.597Z,1.27
2018-02-01T01:39:12.913Z,1.23
2018-02-01T01:41:41.185Z,1.10
2018-02-01T01:44:09.516Z,1.00
2018-02-01T01:46:37.795Z,4.30
2018-02-01T01:49:06.096Z,1.10
2018-02-01T01:51:34.373Z,0.97
2018-02-01T01:54:02.645Z,1.00
2018-02-01T01:56:30.968Z,1.00
2018-02-01T01:58:59.238Z,0.80
2018-02-01T02:01:27.520Z,1.00
2018-02-01T02:03:55.783Z,0.93
2018-02-01T02:06:24.084Z,0.90
2018-02-01T02:08:53.349Z,1.20
2018-02-01T02:11:21.603Z,0.80
2018-02-01T02:13:49.896Z,0.93
2018-02-01T02:16:18.166Z,0.80
2018-02-01T02:18:46.495Z,4.33
2018-02-01T02:21:14.757Z,0.90
2018-02-01T02:23:43.064Z,0.87
2018-02-01T02:26:11.346Z,0.80
2018-02-01T02:28:39.657Z,1.00
2018-02-01T02:31:07.949Z,1.00
2018-02-01T02:33:36.233Z,0.80
2018-02-01T02:36:04.543Z,1.27
2018-02-01T02:38:32.807Z,1.00
2018-02-01T02:41:01.885Z,1.30
2018-02-01T02:43:30.162Z,1.23
2018-02-01T02:45:58.469Z,1.10
2018-02-01T02:48:26.769Z,0.97
2018-02-01T02:50:55.823Z,4.70
2018-02-01T02:53:24.110Z,0.93
2018-02-01T02:55:52.388Z,0.97
2018-02-01T02:58:20.694Z,0.90
2018-02-01T03:00:49.715Z,0.80
2018-02-01T03:03:18.022Z,0.90
2018-02-01T03:05:46.290Z,0.80
2018-02-01T03:08:14.556Z,0.80
2018-02-01T03:10:42.847Z,0.90
2018-02-01T03:13:11.124Z,0.97
2018-02-01T03:15:39.416Z,0.90
2018-02-01T03:18:07.714Z,1.10
2018-02-01T03:20:36.035Z,0.97
2018-02-01T03:23:04.297Z,4.77
2018-02-01T03:25:32.621Z,1.00
2018-02-01T03:28:00.896Z,0.80
2018-02-01T03:30:29.180Z,0.83
2018-02-01T03:32:57.486Z,1.10
2018-02-01T03:35:25.825Z,1.00
2018-02-01T03:37:54.115Z,1.20
2018-02-01T03:40:22.404Z,1.17
2018-02-01T03:42:50.700Z,1.20
2018-02-01T03:45:19.154Z,1.10
2018-02-01T03:47:47.441Z,1.40
2018-02-01T03:50:15.710Z,1.40
2018-02-01T03:52:43.974Z,1.57
2018-02-01T03:55:12.264Z,4.30
2018-02-01T03:57:40.561Z,1.50
2018-02-01T04:00:08.851Z,1.57
2018-02-01T04:02:37.119Z,1.67
2018-02-01T04:05:05.427Z,2.37
2018-02-01T04:07:33.741Z,1.30
2018-02-01T04:10:02.013Z,1.50
2018-02-01T04:12:30.315Z,1.67
2018-02-01T04:14:58.572Z,1.50
2018-02-01T04:17:26.869Z,1.30
2018-02-01T04:19:55.150Z,1.70
2018-02-01T04:22:23.448Z,1.77
2018-02-01T04:24:51.708Z,1.70
2018-02-01T04:27:19.986Z,4.20
2018-02-01T04:29:48.320Z,2.00
2018-02-01T04:32:16.572Z,1.97
2018-02-01T04:34:45.642Z,1.73
2018-02-01T04:37:13.923Z,3.53
2018-02-01T04:39:42.206Z,2.80
2018-02-01T04:42:10.536Z,2.90
2018-02-01T04:44:38.843Z,3.20
2018-02-01T04:47:07.133Z,3.27
2018-02-01T04:49:35.413Z,2.80
2018-02-01T04:52:04.264Z,3.40
2018-02-01T04:54:32.528Z,2.97
2018-02-01T04:57:00.864Z,2.70
2018-02-01T04:59:29.148Z,4.60
2018-02-01T05:01:57.421Z,2.50
2018-02-01T05:04:25.709Z,3.13
2018-02-01T05:06:53.968Z,2.10
2018-02-01T05:09:22.329Z,3.93
2018-02-01T05:11:50.594Z,2.77
2018-02-01T05:14:18.920Z,2.33
2018-02-01T05:16:47.220Z,2.50
2018-02-01T05:19:15.506Z,2.30
2018-02-01T05:21:43.804Z,2.00
2018-02-01T05:24:12.090Z,2.30
2018-02-01T05:26:40.377Z,2.23
2018-02-01T05:29:08.653Z,2.13
2018-02-01T05:31:36.933Z,4.47
2018-02-01T05:34:05.211Z,1.70
2018-02-01T05:36:33.504Z,1.50
2018-02-01T05:39:01.772Z,1.60
2018-02-01T05:41:30.041Z,3.93
2018-02-01T05:43:58.311Z,1.40
2018-02-01T05:46:26.581Z,1.70
2018-02-01T05:48:54.891Z,0.97
2018-02-01T05:51:23.163Z,1.07
2018-02-01T05:53:51.427Z,1.20
2018-02-01T05:56:19.724Z,1.03
2018-02-01T05:58:47.981Z,1.27
2018-02-01T06:01:16.341Z,1.10
2018-02-01T06:03:45.372Z,2.10
2018-02-01T06:06:13.740Z,1.20
2018-02-01T06:08:42.024Z,1.73
2018-02-01T06:11:10.325Z,1.40
2018-02-01T06:13:40.085Z,4.50
2018-02-01T06:16:08.341Z,2.03
2018-02-01T06:18:36.636Z,1.20
2018-02-01T06:21:05.674Z,1.90
2018-02-01T06:23:33.959Z,2.37
2018-02-01T06:26:02.374Z,2.00
2018-02-01T06:28:30.652Z,2.47
2018-02-01T06:30:58.918Z,2.13
2018-02-01T06:33:27.995Z,1.70
2018-02-01T06:35:56.266Z,4.07
2018-02-01T06:38:24.533Z,2.70
2018-02-01T06:40:52.829Z,2.03
2018-02-01T06:43:21.103Z,1.90
2018-02-01T06:45:49.387Z,5.13
2018-02-01T06:48:18.417Z,2.60
2018-02-01T06:50:46.714Z,2.17
2018-02-01T06:53:14.985Z,3.63
2018-02-01T06:55:43.278Z,2.40
2018-02-01T06:58:11.547Z,2.43
2018-02-01T07:00:48.889Z,2.13
2018-02-01T07:03:17.946Z,1.93
2018-02-01T07:05:46.215Z,2.00
2018-02-01T07:08:15.357Z,6.80
2018-02-01T07:10:44.393Z,2.40
2018-02-01T07:13:12.701Z,1.80
2018-02-01T07:15:41.029Z,1.87
2018-02-01T07:18:09.322Z,2.27
2018-02-01T07:20:37.649Z,1.93
2018-02-01T07:23:05.917Z,1.70
2018-02-01T07:25:34.203Z,2.67
2018-02-01T07:28:02.488Z,2.60
2018-02-01T07:30:30.776Z,2.20
2018-02-01T07:32:59.833Z,2.33
2018-02-01T07:35:28.121Z,2.10
2018-02-01T07:37:56.379Z,2.77
2018-02-01T07:40:25.099Z,6.53
2018-02-01T07:42:53.377Z,2.70
2018-02-01T07:45:21.647Z,2.27
2018-02-01T07:47:50.063Z,2.13
2018-02-01T07:50:18.360Z,2.00
2018-02-01T07:52:46.677Z,2.00
2018-02-01T07:55:14.964Z,2.40
2018-02-01T07:57:43.272Z,2.43
2018-02-01T08:00:11.535Z,2.47
2018-02-01T08:02:40.097Z,2.20
2018-02-01T08:05:08.371Z,2.13
2018-02-01T08:07:36.650Z,2.50
2018-02-01T08:10:04.948Z,2.10
2018-02-01T08:12:33.238Z,5.33
2018-02-01T08:15:02.010Z,1.80
2018-02-01T08:17:30.258Z,2.30
2018-02-01T08:19:58.545Z,2.00
2018-02-01T08:22:26.859Z,2.10
2018-02-01T08:24:55.118Z,2.00
2018-02-01T08:27:23.500Z,1.80
2018-02-01T08:29:51.763Z,1.93
2018-02-01T08:32:20.056Z,2.20
2018-02-01T08:34:48.353Z,1.83
2018-02-01T08:37:16.635Z,1.87
2018-02-01T08:39:45.683Z,2.10
2018-02-01T08:42:14.285Z,2.10
2018-02-01T08:44:42.538Z,5.00
2018-02-01T08:47:10.810Z,3.10
2018-02-01T08:49:39.098Z,1.97
2018-02-01T08:52:07.369Z,1.67
2018-02-01T08:54:35.644Z,1.60
2018-02-01T08:57:03.934Z,2.43
2018-02-01T08:59:32.223Z,1.90
2018-02-01T09:02:00.507Z,2.50
2018-02-01T09:04:28.841Z,1.90
2018-02-01T09:06:57.120Z,2.53
2018-02-01T09:09:25.429Z,2.10
2018-02-01T09:11:53.701Z,2.23
2018-02-01T09:14:21.963Z,2.00
2018-02-01T09:16:50.269Z,4.77
2018-02-01T09:19:18.555Z,1.80
2018-02-01T09:21:46.845Z,2.50
2018-02-01T09:24:15.122Z,2.87
2018-02-01T09:26:43.384Z,2.63
2018-02-01T09:29:11.720Z,1.93
2018-02-01T09:31:39.982Z,5.57
2018-02-01T09:34:08.282Z,2.37
2018-02-01T09:36:36.548Z,2.20
2018-02-01T09:39:04.873Z,2.10
2018-02-01T09:41:33.161Z,1.53
2018-02-01T09:44:01.479Z,2.00
2018-02-01T09:46:29.755Z,1.70
2018-02-01T09:48:58.775Z,4.57
2018-02-01T09:51:27.086Z,2.23
2018-02-01T09:53:55.366Z,2.20
2018-02-01T09:56:23.654Z,1.90
2018-02-01T09:58:51.920Z,3.30
2018-02-01T10:01:20.217Z,2.00
2018-02-01T10:03:49.253Z,2.03
2018-02-01T10:06:17.552Z,1.90
2018-02-01T10:08:45.832Z,1.80
2018-02-01T10:11:14.104Z,2.77
2018-02-01T10:13:42.387Z,2.43
2018-02-01T10:16:10.654Z,3.30
2018-02-01T10:18:38.941Z,2.50
2018-02-01T10:21:07.216Z,4.60
2018-02-01T10:23:35.530Z,3.03
2018-02-01T10:26:03.793Z,2.60
2018-02-01T10:28:32.097Z,2.20
2018-02-01T10:31:01.145Z,3.50
2018-02-01T10:33:29.411Z,2.20
2018-02-01T10:35:57.696Z,2.77
2018-02-01T10:38:25.973Z,4.20
2018-02-01T10:40:54.288Z,2.23
2018-02-01T10:43:22.590Z,2.33
2018-02-01T10:45:51.671Z,2.60
2018-02-01T10:48:19.987Z,1.90
2018-02-01T10:50:48.277Z,2.70
2018-02-01T10:53:16.593Z,5.40
2018-02-01T10:55:44.893Z,1.83
2018-02-01T10:58:13.975Z,2.80
2018-02-01T11:00:42.265Z,3.10
2018-02-01T11:03:11.375Z,3.10
2018-02-01T11:05:39.661Z,2.27
2018-02-01T11:08:07.985Z,2.60
2018-02-01T11:10:36.427Z,2.30
2018-02-01T11:13:04.708Z,2.77
2018-02-01T11:15:33.017Z,2.30
2018-02-01T11:18:01.319Z,2.27
2018-02-01T11:20:29.668Z,3.20
2018-02-01T11:22:57.948Z,2.73
2018-02-01T11:25:26.295Z,4.30
2018-02-01T11:27:54.573Z,2.93
2018-02-01T11:30:22.898Z,2.63
2018-02-01T11:32:51.196Z,4.00
2018-02-01T11:35:19.486Z,3.73
2018-02-01T11:37:48.598Z,3.50
2018-02-01T11:40:16.891Z,2.57
2018-02-01T11:42:45.236Z,2.60
2018-02-01T11:45:14.296Z,3.00
2018-02-01T11:47:42.608Z,3.27
2018-02-01T11:50:10.940Z,4.40
2018-02-01T11:52:39.251Z,3.00
2018-02-01T11:55:07.564Z,3.00
2018-02-01T11:57:35.836Z,5.10
2018-02-01T12:00:04.144Z,2.67
2018-02-01T12:02:32.449Z,3.23
2018-02-01T12:05:00.809Z,3.13
2018-02-01T12:07:29.095Z,4.40
2018-02-01T12:09:57.393Z,3.10
2018-02-01T12:12:25.696Z,2.80
2018-02-01T12:14:54.728Z,3.20
2018-02-01T12:17:23.049Z,3.50
2018-02-01T12:19:51.325Z,3.10
2018-02-01T12:22:19.613Z,2.67
2018-02-01T12:24:48.682Z,3.10
2018-02-01T12:27:16.985Z,3.17
2018-02-01T12:29:45.250Z,5.10
2018-02-01T12:32:13.501Z,3.63
2018-02-01T12:34:41.786Z,2.97
2018-02-01T12:37:10.049Z,3.50
2018-02-01T12:39:38.326Z,4.63
2018-02-01T12:42:07.366Z,3.33
2018-02-01T12:47:09.953Z,3.70
2018-02-01T12:49:39.093Z,3.83
2018-02-01T12:52:07.574Z,3.80
2018-02-01T12:54:36.264Z,4.33
2018-02-01T12:57:04.704Z,4.17
2018-02-01T12:59:33.731Z,3.47
2018-02-01T13:02:02.041Z,6.37
2018-02-01T13:04:31.326Z,3.47
2018-02-01T13:06:59.580Z,4.43
2018-02-01T13:09:27.933Z,4.53
2018-02-01T13:11:56.408Z,3.83
2018-02-01T13:20:24.417Z,3.90
2018-02-01T13:22:52.727Z,3.80
2018-02-01T13:25:22.253Z,4.00
2018-02-01T13:27:50.548Z,6.30
2018-02-01T13:30:18.873Z,3.60
2018-02-01T13:32:47.365Z,3.93
2018-02-01T13:35:15.723Z,3.30
2018-02-01T13:37:44.027Z,4.17
2018-02-01T13:40:12.322Z,4.53
2018-02-01T13:42:41.416Z,4.03
2018-02-01T13:45:10.484Z,4.80
2018-02-01T13:47:38.816Z,3.83
2018-02-01T13:50:07.173Z,5.43
2018-02-01T13:52:36.234Z,3.70
2018-02-01T13:55:04.564Z,4.57
2018-02-01T13:57:34.008Z,4.40
2018-02-01T14:00:02.810Z,5.73
2018-02-01T14:02:31.224Z,4.20
2018-02-01T14:04:59.537Z,3.73
2018-02-01T14:07:27.922Z,4.10
2018-02-01T14:09:56.232Z,4.33
2018-02-01T14:12:24.594Z,4.00
2018-02-01T14:14:55.031Z,4.90
2018-02-01T14:17:24.210Z,4.63
2018-02-01T14:19:53.254Z,4.83
2018-02-01T14:22:24.600Z,6.20
2018-02-01T14:24:53.244Z,4.00
2018-02-01T14:27:23.766Z,4.23
2018-02-01T14:29:53.559Z,5.30
2018-02-01T14:32:22.345Z,4.07
2018-02-01T14:34:50.674Z,4.97
2018-02-01T14:37:18.964Z,4.17
2018-02-01T14:39:47.368Z,3.63
2018-02-01T14:42:16.418Z,4.10
2018-02-01T14:44:45.474Z,3.47
2018-02-01T14:50:06.612Z,4.10
2018-02-01T15:06:10.614Z,2.70
2018-02-01T15:08:41.659Z,4.43
2018-02-01T15:11:11.362Z,3.90
2018-02-01T15:13:39.749Z,3.07
2018-02-01T15:16:16.120Z,2.80
2018-02-01T15:18:48.873Z,4.17
2018-02-01T15:24:16.940Z,3.20
2018-02-01T15:26:53.172Z,6.47
2018-02-01T15:29:25.683Z,3.73
2018-02-01T15:31:53.986Z,4.13
2018-02-01T15:37:01.604Z,4.17
2018-02-01T15:43:11.202Z,5.70
2018-02-01T15:45:40.226Z,3.47
2018-02-01T15:51:01.110Z,3.27
2018-02-01T15:53:32.233Z,3.13
2018-02-01T15:56:04.112Z,3.00
2018-02-01T15:58:37.690Z,3.27
2018-02-01T16:01:16.609Z,3.37
2018-02-01T16:03:51.168Z,3.60
2018-02-01T16:06:26.513Z,3.40
2018-02-01T16:08:58.037Z,4.00
2018-02-01T16:11:39.476Z,4.30
2018-02-01T16:17:16.847Z,3.33
2018-02-01T16:19:50.194Z,3.50
2018-02-01T16:22:19.800Z,4.50
2018-02-01T16:24:48.064Z,5.93
2018-02-01T16:30:11.753Z,4.70
2018-02-01T16:32:51.410Z,6.47
2018-02-01T16:35:19.823Z,4.00
2018-02-01T16:37:51.752Z,5.07
2018-02-01T16:40:25.089Z,3.37
2018-02-01T16:47:13.016Z,3.83
2018-02-01T16:49:41.407Z,4.20
2018-02-01T16:52:15.349Z,4.33
2018-02-01T16:54:43.716Z,5.20
2018-02-01T16:57:12.058Z,4.97
2018-02-01T16:59:41.162Z,4.30
2018-02-01T17:02:09.495Z,4.20
2018-02-01T17:04:39.382Z,4.10
2018-02-01T17:07:09.166Z,5.40
2018-02-01T17:09:37.439Z,6.60
2018-02-01T17:12:05.835Z,5.60
2018-02-01T17:14:34.289Z,5.67
2018-02-01T17:17:03.514Z,4.63
2018-02-01T17:19:31.842Z,5.00
2018-02-01T17:22:00.931Z,5.23
2018-02-01T17:24:29.344Z,5.20
2018-02-01T17:26:57.704Z,4.37
2018-02-01T17:29:26.040Z,3.80
2018-02-01T17:31:54.355Z,3.57
2018-02-01T17:34:23.448Z,3.77
2018-02-01T17:36:51.852Z,3.40
2018-02-01T17:39:20.912Z,4.80
2018-02-01T17:41:49.260Z,7.30
2018-02-01T17:44:17.568Z,5.13
2018-02-01T17:46:46.329Z,8.37
2018-02-01T17:49:15.510Z,6.80
2018-02-01T17:51:44.518Z,4.07
2018-02-01T17:54:12.870Z,6.33
2018-02-01T17:56:41.213Z,4.40
2018-02-01T17:59:09.640Z,5.27
2018-02-01T18:01:37.990Z,5.00
2018-02-01T18:04:07.096Z,6.10
2018-02-01T18:06:36.194Z,5.10
2018-02-01T18:09:05.297Z,5.70
2018-02-01T18:11:37.706Z,4.70
2018-02-01T18:14:06.013Z,4.50
2018-02-01T18:16:34.413Z,5.20
2018-02-01T18:19:02.757Z,4.10
2018-02-01T18:21:31.107Z,4.97
2018-02-01T18:23:59.454Z,4.30
2018-02-01T18:26:27.763Z,4.00
2018-02-01T18:28:56.146Z,3.60
2018-02-01T18:31:25.868Z,4.33
2018-02-01T18:33:54.170Z,4.13
2018-02-01T18:36:22.490Z,8.17
2018-02-01T18:38:51.595Z,5.00
2018-02-01T18:41:19.955Z,5.40
2018-02-01T18:43:49.114Z,3.87
2018-02-01T18:46:18.014Z,4.00
2018-02-01T18:48:47.108Z,3.53
2018-02-01T18:51:15.701Z,3.33
2018-02-01T18:53:44.034Z,3.53
2018-02-01T18:56:12.833Z,3.97
2018-02-01T18:58:41.508Z,4.20
2018-02-01T19:01:10.583Z,3.30
2018-02-01T19:03:38.916Z,3.73
2018-02-01T19:06:07.256Z,4.20
2018-02-01T19:08:35.602Z,7.90
2018-02-01T19:11:03.940Z,4.13
2018-02-01T19:13:32.301Z,3.63
2018-02-01T19:16:00.635Z,3.57
2018-02-01T19:18:28.958Z,2.80
2018-02-01T19:20:58.570Z,2.80
2018-02-01T19:23:26.978Z,3.20
2018-02-01T19:25:55.492Z,3.63
2018-02-01T19:28:26.489Z,3.23
2018-02-01T19:30:54.882Z,3.57
2018-02-01T19:33:23.305Z,3.80
2018-02-01T19:35:51.623Z,2.63
2018-02-01T19:38:20.631Z,2.80
2018-02-01T19:40:49.614Z,6.23
2018-02-01T19:43:18.002Z,3.37
2018-02-01T19:45:47.093Z,3.10
2018-02-01T19:48:16.234Z,3.30
2018-02-01T19:50:44.612Z,2.80
2018-02-01T19:53:12.990Z,2.97
2018-02-01T19:55:41.422Z,3.30
2018-02-01T19:58:10.144Z,7.67
2018-02-01T20:00:38.529Z,2.40
2018-02-01T20:03:06.910Z,5.50
2018-02-01T20:05:35.301Z,4.27
2018-02-01T20:08:04.108Z,3.23
2018-02-01T20:10:33.891Z,3.70
2018-02-01T20:13:02.306Z,5.43
2018-02-01T20:15:30.658Z,2.77
2018-02-01T20:17:59.051Z,3.57
2018-02-01T20:20:27.399Z,3.17
2018-02-01T20:22:56.326Z,3.00
2018-02-01T20:25:26.263Z,4.70
2018-02-01T20:27:55.897Z,6.80
2018-02-01T20:30:25.890Z,5.00
2018-02-01T20:32:54.285Z,5.93
2018-02-01T20:35:22.632Z,9.47
2018-02-01T20:37:50.929Z,7.70
2018-02-01T20:40:20.068Z,7.93
2018-02-01T20:42:49.180Z,6.60
2018-02-01T20:45:17.883Z,6.70
2018-02-01T20:47:48.367Z,4.60
2018-02-01T20:50:16.846Z,3.93
2018-02-01T20:52:45.274Z,4.30
2018-02-01T20:55:13.564Z,3.53
2018-02-01T20:57:42.740Z,4.00
2018-02-01T21:00:11.387Z,2.80
2018-02-01T21:02:39.700Z,2.87
2018-02-01T21:05:08.003Z,2.63
2018-02-01T21:07:36.326Z,6.63
2018-02-01T21:10:04.667Z,2.97
2018-02-01T21:12:32.957Z,3.40
2018-02-01T21:15:02.045Z,2.70
2018-02-01T21:17:31.155Z,3.10
2018-02-01T21:20:00.188Z,2.43
2018-02-01T21:22:28.493Z,2.47
2018-02-01T21:24:56.776Z,3.43
2018-02-01T21:27:25.089Z,3.40
2018-02-01T21:29:54.137Z,3.93
2018-02-01T21:32:22.517Z,3.83
2018-02-01T21:34:50.826Z,3.67
2018-02-01T21:37:19.950Z,3.93
2018-02-01T21:39:48.265Z,5.77
2018-02-01T21:42:16.546Z,3.80
2018-02-01T21:44:44.846Z,3.20
2018-02-01T21:47:13.181Z,3.20
2018-02-01T21:49:41.493Z,3.30
2018-02-01T21:52:09.810Z,3.23
2018-02-01T21:54:39.314Z,3.90
2018-02-01T21:57:07.619Z,3.40
2018-02-01T21:59:35.988Z,2.83
2018-02-01T22:02:05.025Z,3.90
2018-02-01T22:04:35.526Z,3.10
2018-02-01T22:07:03.813Z,4.10
2018-02-01T22:09:32.229Z,3.42
2018-02-01T22:12:00.564Z,6.10
2018-02-01T22:14:28.862Z,3.10
2018-02-01T22:17:14.461Z,4.40
2018-02-01T22:19:42.742Z,3.60
2018-02-01T22:22:11.059Z,3.30
2018-02-01T22:24:39.335Z,3.20
2018-02-01T22:27:07.606Z,3.23
2018-02-01T22:29:35.918Z,3.30
2018-02-01T22:32:04.254Z,2.20
2018-02-01T22:34:33.309Z,3.17
2018-02-01T22:37:01.630Z,3.20
2018-02-01T22:39:30.866Z,2.60
2018-02-01T22:41:59.140Z,2.83
2018-02-01T22:44:28.254Z,0.60
2018-02-01T22:46:56.544Z,0.70
2018-02-01T22:49:24.793Z,0.70
2018-02-01T22:51:53.128Z,1.37
2018-02-01T22:54:21.481Z,0.70
2018-02-01T22:56:49.797Z,0.60
2018-02-01T22:59:18.115Z,1.70
2018-02-01T23:01:46.370Z,0.70
2018-02-01T23:04:14.686Z,0.60
2018-02-01T23:06:43.022Z,0.70
2018-02-01T23:09:11.373Z,0.70
2018-02-01T23:11:39.659Z,0.60
2018-02-01T23:14:07.971Z,0.70
2018-02-01T23:16:36.247Z,0.70
2018-02-01T23:19:04.569Z,0.70
2018-02-01T23:21:32.847Z,0.67
2018-02-01T23:24:01.141Z,0.70
2018-02-01T23:26:29.416Z,0.70
2018-02-01T23:28:57.729Z,0.63
2018-02-01T23:31:26.034Z,0.80
2018-02-01T23:33:54.309Z,0.70
2018-02-01T23:36:22.601Z,0.70
2018-02-01T23:38:50.968Z,0.60
2018-02-01T23:41:19.250Z,2.30
2018-02-01T23:43:48.002Z,0.80
2018-02-01T23:46:17.025Z,0.90
2018-02-01T23:48:46.113Z,0.80
2018-02-01T23:51:14.416Z,1.60
2018-02-01T23:53:42.956Z,1.93
2018-02-01T23:56:11.992Z,1.70
2018-02-01T23:58:40.280Z,5.97
